Time;durP1;ratioP1;P1;durP2;ratioP2;P2;SDS_P1;SDS_P2;PMS_P1;PMS_P2;Temp;Humidity;BMP_temperature;BMP_pressure;BME280_temperature;BME280_humidity;BME280_pressure;Samples;Min_cycle;Max_cycle;Signal;HPM_P1;HPM_P2
2022/08/22 00:01:52;;;;;;;26.60;9.10;;;;;;;15.69;89.37;98310.56;88158;1276;25648;-70
2022/08/22 00:04:16;;;;;;;32.70;10.90;;;;;;;15.70;89.27;98309.48;88321;1276;22748;-70
2022/08/22 00:06:49;;;;;;;28.90;10.50;;;;;;;15.71;89.36;98308.46;87966;1279;99357;-69
2022/08/22 00:09:23;;;;;;;36.00;11.00;;;;;;;15.71;89.31;98305.13;88397;1276;22770;-69
2022/08/22 00:11:44;;;;;;;34.30;9.80;;;;;;;15.73;89.48;98304.98;88196;1279;98986;-71
2022/08/22 00:14:06;;;;;;;35.10;11.10;;;;;;;15.72;89.42;98303.27;88266;1279;22655;-71
2022/08/22 00:16:35;;;;;;;49.50;11.50;;;;;;;15.72;89.46;98297.25;88172;1276;22582;-71
2022/08/22 00:19:12;;;;;;;53.00;11.50;;;;;;;15.73;89.47;98298.56;88146;1276;99868;-71
2022/08/22 00:21:23;;;;;;;42.50;12.40;;;;;;;15.73;89.42;98298.75;87926;1283;25550;-70
2022/08/22 00:23:40;;;;;;;58.50;12.40;;;;;;;15.73;89.47;98297.88;87689;1283;100051;-72
2022/08/22 00:26:01;;;;;;;71.20;14.70;;;;;;;15.72;89.45;98295.98;87932;1281;25538;-71
2022/08/22 00:28:08;;;;;;;43.90;12.60;;;;;;;15.73;89.32;98294.53;88099;1280;24386;-70
2022/08/22 00:30:15;;;;;;;78.20;13.90;;;;;;;15.72;89.40;98293.15;88001;1277;99688;-71
2022/08/22 00:32:28;;;;;;;44.50;12.80;;;;;;;15.73;89.46;98292.55;88095;1277;24217;-70
2022/08/22 00:34:43;;;;;;;61.90;13.80;;;;;;;15.74;89.46;98287.89;88026;1279;22568;-71
2022/08/22 00:37:24;;;;;;;80.50;14.60;;;;;;;15.74;89.47;98293.52;88005;1279;99131;-70
2022/08/22 00:39:48;;;;;;;68.10;13.20;;;;;;;15.75;89.54;98289.90;87954;1281;22669;-71
2022/08/22 00:42:05;;;;;;;74.50;14.30;;;;;;;15.76;89.49;98292.30;87947;1279;99613;-71
2022/08/22 00:44:19;;;;;;;71.60;14.60;;;;;;;15.76;89.49;98290.70;88121;1278;23587;-69
2022/08/22 00:46:39;;;;;;;83.20;14.70;;;;;;;15.76;89.60;98292.10;88230;1277;22610;-71
2022/08/22 00:49:06;;;;;;;84.00;15.50;;;;;;;15.77;89.52;98289.73;88176;1279;99317;-71
2022/08/22 00:51:26;;;;;;;113.10;16.50;;;;;;;15.76;89.50;98290.15;88261;1277;22679;-70
2022/08/22 00:53:43;;;;;;;77.70;15.20;;;;;;;15.77;89.51;98288.67;88069;1279;100134;-68
2022/08/22 00:56:10;;;;;;;97.20;16.40;;;;;;;15.78;89.60;98289.84;88204;1273;22722;-71
2022/08/22 00:58:34;;;;;;;93.50;15.20;;;;;;;15.80;89.60;98288.08;88266;1273;24327;-70
2022/08/22 01:00:45;;;;;;;71.90;15.40;;;;;;;15.81;89.53;98287.66;88355;1273;99699;-70
2022/08/22 01:02:55;;;;;;;;;;;;;;;15.81;89.63;98283.58;88617;1273;22661;-71
2022/08/22 01:05:35;;;;;;;79.20;15.20;;;;;;;15.81;89.75;98282.00;88533;1273;22570;-71
2022/08/22 01:08:08;;;;;;;84.60;15.00;;;;;;;15.82;89.54;98279.11;88220;1277;22725;-70
2022/08/22 01:10:58;;;;;;;92.40;15.70;;;;;;;15.81;89.65;98272.23;88126;1276;22749;-70
2022/08/22 01:13:34;;;;;;;86.60;15.70;;;;;;;15.82;89.56;98271.86;87682;1284;100833;-71
2022/08/22 01:15:38;;;;;;;76.30;14.40;;;;;;;15.81;89.63;98271.52;87617;1285;25149;-70
2022/08/22 01:17:59;;;;;;;77.70;14.50;;;;;;;15.82;89.69;98273.44;87641;1284;100059;-71
2022/08/22 01:20:34;;;;;;;94.80;14.90;;;;;;;15.82;89.51;98273.98;88407;1284;22714;-70
2022/08/22 01:22:42;;;;;;;82.10;15.80;;;;;;;15.81;89.60;98276.72;87777;1283;22724;-70
2022/08/22 01:25:21;;;;;;;122.40;16.00;;;;;;;15.80;89.61;98277.27;87702;1285;100461;-69
2022/08/22 01:28:26;;;;;;;68.90;13.20;;;;;;;15.81;89.68;98275.44;87709;1284;22858;-71
2022/08/22 01:30:45;;;;;;;81.60;13.50;;;;;;;15.81;89.59;98273.14;87277;1289;99436;-70
2022/08/22 01:33:22;;;;;;;69.00;12.20;;;;;;;15.80;89.61;98271.30;87286;1287;23515;-71
2022/08/22 01:35:23;;;;;;;74.60;12.90;;;;;;;15.79;89.59;98269.58;87167;1288;98537;-70
2022/08/22 01:37:44;;;;;;;100.30;13.70;;;;;;;15.78;89.62;98266.30;87330;1288;24043;-70
2022/08/22 01:39:51;;;;;;;78.60;11.60;;;;;;;15.77;89.60;98265.13;87303;1287;22705;-72
2022/08/22 01:42:11;;;;;;;102.10;12.10;;;;;;;15.76;89.65;98263.79;87069;1289;100794;-69
2022/08/22 01:44:44;;;;;;;108.90;14.30;;;;;;;15.76;89.65;98268.24;87178;1290;26674;-70
2022/08/22 01:47:39;;;;;;;106.70;13.90;;;;;;;15.75;89.70;98271.67;87276;1289;24416;-71
2022/08/22 01:49:46;;;;;;;97.50;13.40;;;;;;;15.75;89.77;98267.90;86831;1292;25512;-70
2022/08/22 01:52:11;;;;;;;89.70;12.60;;;;;;;15.76;89.70;98266.23;87056;1291;24252;-70
2022/08/22 01:54:21;;;;;;;96.30;14.40;;;;;;;15.77;89.61;98264.06;87144;1290;99547;-70
2022/08/22 01:56:30;;;;;;;98.50;14.80;;;;;;;15.77;89.65;98263.88;87221;1291;22941;-69
2022/08/22 01:58:35;;;;;;;75.30;13.80;;;;;;;15.81;89.74;98271.40;86973;1290;23426;-69
2022/08/22 02:01:15;;;;;;;97.70;14.80;;;;;;;15.81;89.72;98275.32;87063;1290;99356;-69
2022/08/22 02:03:50;;;;;;;110.90;14.50;;;;;;;15.81;89.79;98280.56;87073;1290;24408;-70
2022/08/22 02:06:02;;;;;;;112.60;14.90;;;;;;;15.81;89.79;98282.71;87177;1287;99492;-70
2022/08/22 02:08:41;;;;;;;103.50;13.90;;;;;;;15.81;89.84;98278.44;87224;1287;24553;-69
2022/08/22 02:10:53;;;;;;;106.20;14.30;;;;;;;15.82;89.79;98281.73;87702;1285;24186;-69
2022/08/22 02:13:09;;;;;;;96.60;15.10;;;;;;;15.84;89.76;98281.98;87684;1284;99637;-69
2022/08/22 02:15:23;;;;;;;96.70;13.90;;;;;;;15.85;89.85;98278.01;87712;1284;22748;-70
2022/08/22 02:17:31;;;;;;;105.10;15.70;;;;;;;15.87;89.81;98281.02;87640;1284;99486;-70
2022/08/22 02:19:43;;;;;;;105.20;16.70;;;;;;;15.87;89.75;98275.85;87867;1285;22646;-70
2022/08/22 02:21:52;;;;;;;101.20;15.40;;;;;;;15.89;89.79;98277.69;87845;1283;22632;-69
2022/08/22 02:24:26;;;;;;;95.30;14.10;;;;;;;15.89;89.78;98274.98;87837;1275;99620;-69
2022/08/22 02:27:05;;;;;;;73.90;14.50;;;;;;;15.91;89.80;98273.45;88379;1273;25610;-71
2022/08/22 02:29:14;;;;;;;84.80;14.90;;;;;;;15.91;89.88;98270.39;88160;1276;26321;-71
2022/08/22 02:31:40;;;;;;;85.10;13.50;;;;;;;15.93;89.82;98268.15;88300;1276;99272;-68
2022/08/22 02:33:44;;;;;;;87.10;13.90;;;;;;;15.94;89.84;98271.80;88104;1278;22762;-71
2022/08/22 02:35:55;;;;;;;80.60;14.00;;;;;;;15.95;89.86;98276.85;88037;1279;99193;-70
2022/08/22 02:38:03;;;;;;;;;;;;;;;15.96;89.91;98281.19;88198;1278;23181;-69
2022/08/22 02:40:29;;;;;;;76.90;14.60;;;;;;;15.96;89.96;98281.52;88231;1276;22740;-70
2022/08/22 02:42:58;;;;;;;89.20;15.80;;;;;;;15.98;89.90;98279.17;88013;1279;99560;-71
2022/08/22 02:45:25;;;;;;;78.90;15.10;;;;;;;16.00;89.92;98276.55;88116;1279;25329;-71
2022/08/22 02:47:47;;;;;;;84.70;15.40;;;;;;;16.01;89.80;98271.04;88176;1276;99511;-69
2022/08/22 02:50:24;;;;;;;75.40;15.20;;;;;;;16.01;89.84;98271.38;87813;1284;26259;-70
2022/08/22 02:52:39;;;;;;;93.90;15.50;;;;;;;16.01;89.85;98269.08;87707;1285;22692;-69
2022/08/22 02:54:57;;;;;;;100.00;15.90;;;;;;;16.03;89.84;98269.81;87906;1284;100917;-69
2022/08/22 02:57:10;;;;;;;78.60;15.70;;;;;;;16.05;89.91;98274.42;87394;1286;24856;-70
2022/08/22 02:59:29;;;;;;;65.50;15.20;;;;;;;16.06;89.97;98271.89;87561;1284;22727;-70
2022/08/22 03:01:30;;;;;;;82.10;15.20;;;;;;;16.07;89.84;98274.58;87633;1284;22892;-69
2022/08/22 03:03:40;;;;;;;82.20;15.60;;;;;;;16.08;89.86;98276.85;87774;1281;24326;-71
2022/08/22 03:05:44;;;;;;;73.80;15.40;;;;;;;16.08;89.89;98277.19;87878;1281;99774;-70
2022/08/22 03:08:07;;;;;;;84.70;15.20;;;;;;;16.10;90.11;98275.80;87865;1282;22592;-70
2022/08/22 03:10:29;;;;;;;74.80;14.60;;;;;;;16.10;89.96;98272.55;87813;1285;22899;-70
2022/08/22 03:12:34;;;;;;;85.80;15.30;;;;;;;16.10;89.93;98272.72;87686;1281;99438;-70
2022/08/22 03:14:55;;;;;;;68.80;15.10;;;;;;;16.10;89.74;98271.66;88145;1282;22778;-69
2022/08/22 03:17:05;;;;;;;75.00;15.40;;;;;;;16.11;90.03;98274.11;87869;1281;22603;-71
2022/08/22 03:19:35;;;;;;;106.90;15.50;;;;;;;16.11;89.95;98271.94;87877;1281;99737;-69
2022/08/22 03:21:46;;;;;;;83.20;15.90;;;;;;;16.13;89.97;98270.35;87811;1281;23533;-69
2022/08/22 03:23:55;;;;;;;88.30;16.10;;;;;;;16.14;90.01;98272.55;87847;1281;99565;-71
2022/08/22 03:26:08;;;;;;;77.70;16.00;;;;;;;16.15;90.04;98276.75;87940;1281;24256;-70
2022/08/22 03:28:19;;;;;;;74.90;16.60;;;;;;;16.17;89.88;98282.64;88206;1276;23589;-69
2022/08/22 03:30:33;;;;;;;85.50;15.60;;;;;;;16.17;89.87;98279.08;87271;1273;1465590;-71
2022/08/22 03:32:53;;;;;;;81.30;16.60;;;;;;;16.18;89.93;98283.98;88398;1273;22634;-69
2022/08/22 03:35:07;;;;;;;89.70;19.30;;;;;;;16.19;90.02;98280.88;88425;1273;24438;-71
2022/08/22 03:37:16;;;;;;;91.60;18.10;;;;;;;16.19;89.92;98277.05;88272;1275;99418;-71
2022/08/22 03:39:34;;;;;;;81.70;18.00;;;;;;;16.19;90.09;98277.51;88302;1275;23493;-69
2022/08/22 03:42:17;;;;;;;104.90;18.20;;;;;;;16.22;89.98;98282.30;88284;1275;101062;-70
2022/08/22 03:44:40;;;;;;;82.80;18.20;;;;;;;16.22;90.01;98279.39;88333;1273;23163;-69
2022/08/22 03:47:12;;;;;;;79.00;17.80;;;;;;;16.22;90.03;98280.83;88331;1275;25237;-71
2022/08/22 03:49:34;;;;;;;76.90;16.30;;;;;;;16.23;90.00;98279.57;88468;1274;98928;-70
2022/08/22 03:52:17;;;;;;;83.60;18.20;;;;;;;16.24;90.01;98279.99;88361;1275;22599;-69
2022/08/22 03:54:48;;;;;;;103.60;18.00;;;;;;;16.25;90.00;98278.80;88399;1273;99413;-69
2022/08/22 03:57:23;;;;;;;93.90;18.50;;;;;;;16.26;89.98;98281.58;88512;1273;22599;-70
2022/08/22 03:59:53;;;;;;;97.10;17.90;;;;;;;16.27;90.00;98284.17;88396;1273;99713;-71
2022/08/22 04:02:16;;;;;;;87.30;19.80;;;;;;;16.27;90.04;98287.48;88469;1273;24272;-69
2022/08/22 04:04:40;;;;;;;116.90;20.40;;;;;;;16.27;90.00;98286.61;88416;1273;23423;-71
2022/08/22 04:07:24;;;;;;;126.40;21.50;;;;;;;16.28;89.97;98291.50;88329;1275;100346;-71
2022/08/22 04:10:03;;;;;;;108.60;18.00;;;;;;;16.27;89.98;98296.19;88239;1278;22826;-68
2022/08/22 04:12:17;;;;;;;91.50;18.20;;;;;;;16.27;90.06;98296.90;88137;1276;100037;-71
2022/08/22 04:14:49;;;;;;;93.90;17.10;;;;;;;16.27;89.99;98300.61;88191;1277;22560;-70
2022/08/22 04:17:00;;;;;;;74.40;14.90;;;;;;;16.27;89.95;98302.60;88215;1277;22757;-71
2022/08/22 04:19:23;;;;;;;76.90;15.40;;;;;;;16.24;90.00;98306.03;88032;1279;99459;-71
2022/08/22 04:22:16;;;;;;;70.80;14.20;;;;;;;16.23;89.92;98311.20;88081;1278;22753;-71
2022/08/22 04:24:36;;;;;;;59.60;13.90;;;;;;;16.21;90.02;98311.00;87614;1284;99467;-70
2022/08/22 04:26:49;;;;;;;62.80;14.30;;;;;;;16.21;90.05;98304.45;87800;1283;25549;-70
2022/08/22 04:28:57;;;;;;;61.10;13.70;;;;;;;16.22;90.04;98309.36;87847;1283;24281;-70
2022/08/22 04:31:13;;;;;;;60.20;13.70;;;;;;;16.25;90.06;98306.30;86895;1285;99354;-71
2022/08/22 04:33:27;;;;;;;53.40;14.00;;;;;;;16.26;90.09;98305.48;87718;1285;24389;-69
2022/08/22 04:35:38;;;;;;;49.40;13.60;;;;;;;16.28;90.12;98303.52;87722;1284;99751;-71
2022/08/22 04:37:51;;;;;;;66.10;13.90;;;;;;;16.31;90.22;98307.42;87678;1284;22613;-69
2022/08/22 04:40:01;;;;;;;64.30;14.20;;;;;;;16.33;90.15;98307.22;87744;1285;23026;-70
2022/08/22 04:42:14;;;;;;;63.00;14.60;;;;;;;16.35;90.23;98308.64;87538;1285;100015;-70
2022/08/22 04:44:26;;;;;;;52.90;13.00;;;;;;;16.37;90.19;98309.88;87830;1282;22592;-69
2022/08/22 04:46:40;;;;;;;50.50;13.30;;;;;;;16.39;90.09;98307.59;87935;1281;24270;-71
2022/08/22 04:49:26;;;;;;;45.80;13.30;;;;;;;16.40;90.03;98308.00;87880;1281;99697;-68
2022/08/22 04:51:39;;;;;;;46.20;12.40;;;;;;;16.42;90.20;98314.97;88018;1281;22584;-69
2022/08/22 04:53:46;;;;;;;46.10;13.10;;;;;;;16.43;90.09;98315.65;87867;1281;99649;-71
2022/08/22 04:56:00;;;;;;;43.00;13.00;;;;;;;16.43;90.17;98314.89;88220;1274;25775;-71
2022/08/22 04:58:21;;;;;;;41.80;11.30;;;;;;;16.45;90.17;98318.64;88214;1276;25673;-69
2022/08/22 05:00:23;;;;;;;34.60;12.60;;;;;;;16.46;90.14;98321.70;88089;1278;99463;-70
2022/08/22 05:02:30;;;;;;;42.00;12.60;;;;;;;16.48;90.20;98322.63;88359;1275;22791;-71
2022/08/22 05:04:54;;;;;;;40.60;13.20;;;;;;;16.49;90.10;98324.81;88331;1275;24384;-69
2022/08/22 05:07:17;;;;;;;39.50;12.00;;;;;;;16.52;90.19;98325.11;88380;1275;99677;-69
2022/08/22 05:09:26;;;;;;;41.00;13.20;;;;;;;16.56;90.20;98322.56;88512;1275;22799;-70
2022/08/22 05:11:30;;;;;;;37.50;12.30;;;;;;;16.58;90.15;98321.81;88190;1275;99700;-72
2022/08/22 05:13:47;;;;;;;36.60;13.00;;;;;;;16.60;90.22;98320.98;88305;1278;24077;-70
2022/08/22 05:15:54;;;;;;;41.00;12.30;;;;;;;16.63;90.27;98320.40;88260;1274;22716;-71
2022/08/22 05:18:03;;;;;;;40.10;13.70;;;;;;;16.66;90.26;98327.89;88264;1274;99476;-70
2022/08/22 05:20:10;;;;;;;45.40;14.40;;;;;;;16.69;90.29;98329.38;88366;1274;26033;-71
2022/08/22 05:22:18;;;;;;;47.20;14.40;;;;;;;16.72;90.25;98330.91;88859;1278;23513;-70
2022/08/22 05:24:38;;;;;;;38.70;14.00;;;;;;;16.76;90.29;98337.88;88239;1274;100076;-71
2022/08/22 05:26:45;;;;;;;34.20;14.80;;;;;;;16.78;90.30;98338.63;88348;1274;26101;-70
2022/08/22 05:28:51;;;;;;;42.00;15.30;;;;;;;16.79;90.33;98342.77;88229;1276;22556;-70
2022/08/22 05:30:56;;;;;;;30.10;16.00;;;;;;;16.80;90.20;98341.75;88283;1278;100825;-71
2022/08/22 05:33:31;;;;;;;38.90;15.30;;;;;;;16.82;90.26;98339.49;88349;1274;25300;-69
2022/08/22 05:35:36;;;;;;;40.00;15.90;;;;;;;16.83;90.25;98339.08;88239;1274;99743;-70
2022/08/22 05:37:48;;;;;;;42.00;15.80;;;;;;;16.84;90.36;98341.77;88362;1274;25412;-71
2022/08/22 05:39:56;;;;;;;39.50;16.50;;;;;;;16.87;90.28;98341.23;88583;1275;25336;-71
2022/08/22 05:42:02;;;;;;;35.30;16.30;;;;;;;16.89;90.21;98343.58;88192;1278;99481;-72
2022/08/22 05:44:15;;;;;;;46.90;18.70;;;;;;;16.90;90.18;98345.07;88392;1274;22580;-72
2022/08/22 05:46:44;;;;;;;39.40;18.10;;;;;;;16.92;90.16;98348.09;88343;1274;24111;-69
2022/08/22 05:48:55;;;;;;;40.60;19.30;;;;;;;16.95;90.31;98348.60;88408;1274;99481;-70
2022/08/22 05:51:11;;;;;;;36.40;18.20;;;;;;;16.96;90.36;98353.95;88264;1276;22656;-70
2022/08/22 05:53:50;;;;;;;36.10;18.40;;;;;;;16.98;90.19;98356.98;88289;1278;22627;-71
2022/08/22 05:56:02;;;;;;;42.10;19.10;;;;;;;17.00;90.21;98363.80;88083;1281;26170;-70
2022/08/22 05:58:07;;;;;;;36.70;18.70;;;;;;;17.01;90.21;98366.81;88180;1279;23147;-71
2022/08/22 06:00:16;;;;;;;39.30;18.30;;;;;;;17.02;90.32;98367.66;88060;1281;99588;-71
2022/08/22 06:02:23;;;;;;;45.40;18.60;;;;;;;17.04;90.17;98372.34;88192;1281;25339;-72
2022/08/22 06:04:50;;;;;;;34.50;17.50;;;;;;;17.04;90.20;98369.23;88028;1284;25463;-71
2022/08/22 06:06:59;;;;;;;36.40;17.60;;;;;;;17.06;90.26;98371.41;88378;1276;100035;-71
2022/08/22 06:09:39;;;;;;;51.10;18.90;;;;;;;17.08;90.30;98372.33;88610;1278;22639;-72
2022/08/22 06:12:11;;;;;;;64.20;20.20;;;;;;;17.12;90.36;98372.54;88285;1283;99524;-71
2022/08/22 06:14:27;;;;;;;46.10;17.60;;;;;;;17.14;90.34;98370.16;88265;1284;22564;-70
2022/08/22 06:16:40;;;;;;;35.70;17.70;;;;;;;17.16;90.21;98374.80;88358;1283;22578;-71
2022/08/22 06:18:43;;;;;;;29.70;16.40;;;;;;;17.17;90.24;98373.64;87907;1287;99864;-72
2022/08/22 06:20:52;;;;;;;46.50;18.10;;;;;;;17.18;90.18;98371.42;87898;1284;22736;-71
2022/08/22 06:22:59;;;;;;;58.60;19.80;;;;;;;17.23;90.22;98371.06;88303;1284;26768;-72
2022/08/22 06:25:32;;;;;;;49.40;19.50;;;;;;;17.26;90.30;98368.17;87972;1287;99499;-71
2022/08/22 06:27:35;;;;;;;35.30;19.30;;;;;;;17.29;90.36;98365.42;88364;1283;22721;-71
2022/08/22 06:29:58;;;;;;;45.50;18.40;;;;;;;17.31;90.39;98367.19;88357;1283;99667;-71
2022/08/22 06:32:09;;;;;;;49.10;19.10;;;;;;;17.37;90.40;98365.20;88367;1282;25448;-72
2022/08/22 06:34:16;;;;;;;51.20;18.90;;;;;;;17.42;90.45;98360.52;88603;1281;24376;-70
2022/08/22 06:36:31;;;;;;;45.60;19.90;;;;;;;17.45;90.39;98361.30;88445;1277;100732;-72
2022/08/22 06:38:59;;;;;;;62.40;19.40;;;;;;;17.50;90.30;98369.23;88365;1280;22606;-73
2022/08/22 06:54:26;;;;;;;;;;;;;;;;;;;;;
2022/08/22 06:57:12;;;;;;;33.10;14.60;;;;;;;18.05;89.86;98371.27;84161;1282;5350224;-77
2022/08/22 07:06:14;;;;;;;72.60;18.60;;;;;;;18.13;90.04;98371.61;87800;1287;22589;-75
2022/08/22 07:09:17;;;;;;;46.40;16.80;;;;;;;18.17;90.11;98374.24;87732;1287;22640;-74
2022/08/22 07:12:21;;;;;;;;;;;;;;;;;;;;;
2022/08/22 07:15:26;;;;;;;86.80;19.60;;;;;;;18.26;90.10;98374.70;87880;1287;22594;-75
2022/08/22 07:18:30;;;;;;;55.20;18.10;;;;;;;18.31;90.19;98379.43;87746;1286;22675;-74
2022/08/22 07:21:32;;;;;;;33.50;16.50;;;;;;;18.34;90.11;98380.27;87643;1288;22638;-74
2022/08/22 07:24:34;;;;;;;40.70;17.10;;;;;;;18.34;89.98;98383.42;87242;1294;22665;-74
2022/08/22 07:27:36;;;;;;;;;;;;;;;;;;;;;
2022/08/22 07:30:51;;;;;;;;;;;;;;;;;;;;;
2022/08/22 07:34:02;;;;;;;29.00;17.00;;;;;;;18.36;90.07;98390.60;86423;1303;24340;-75
2022/08/22 07:37:06;;;;;;;24.10;15.90;;;;;;;18.37;90.12;98391.66;86557;1303;99262;-75
2022/08/22 07:40:20;;;;;;;24.80;15.50;;;;;;;18.34;90.03;98392.47;86532;1300;22614;-74
2022/08/22 07:43:12;;;;;;;24.10;16.20;;;;;;;18.34;89.99;98394.69;86702;1297;98768;-74
2022/08/22 07:46:25;;;;;;;30.20;15.70;;;;;;;18.34;89.99;98393.77;86996;1297;24415;-73
2022/08/22 07:52:36;;;;;;;33.50;18.60;;;;;;;18.38;90.12;98395.20;86788;1297;22595;-74
2022/08/22 07:55:42;;;;;;;25.40;17.20;;;;;;;18.38;90.13;98398.58;86855;1297;99470;-74
2022/08/22 07:58:43;;;;;;;29.30;18.00;;;;;;;18.40;90.12;98398.25;86660;1300;22701;-74
2022/08/22 08:01:28;;;;;;;31.30;18.70;;;;;;;18.42;90.10;98398.77;86673;1297;98710;-74
2022/08/22 08:04:34;;;;;;;31.60;17.00;;;;;;;18.44;90.09;98396.79;87009;1295;23786;-73
2022/08/22 08:07:36;;;;;;;;;;;;;;;;;;;;;
2022/08/22 08:10:38;;;;;;;;;;;;;;;;;;;;;
2022/08/22 08:13:23;;;;;;;43.10;17.60;;;;;;;18.50;90.12;98395.30;87290;1294;98774;-75
2022/08/22 08:22:48;;;;;;;29.60;17.70;;;;;;;18.63;90.29;98381.58;87364;1290;22563;-74
2022/08/22 08:25:50;;;;;;;27.40;17.80;;;;;;;18.66;90.08;98383.77;87314;1291;98413;-74
2022/08/22 08:29:14;;;;;;;35.10;18.90;;;;;;;18.71;90.05;98379.72;86699;1298;22653;-73
2022/08/22 08:35:03;;;;;;;37.60;20.30;;;;;;;18.87;90.25;98380.57;82490;1303;22627;-75
2022/08/22 08:38:14;;;;;;;;;;;;;;;;;;;;;
2022/08/22 08:41:57;;;;;;;32.00;17.80;;;;;;;18.97;90.15;98382.27;86228;1306;22826;-74
2022/08/22 08:45:00;;;;;;;32.30;17.40;;;;;;;18.98;90.02;98388.56;85961;1309;97220;-74
2022/08/22 08:51:35;;;;;;;35.20;17.30;;;;;;;18.96;89.96;98380.36;85671;1318;22658;-74
2022/08/22 08:54:42;;;;;;;;;;;;;;;;;;;;;
2022/08/22 08:57:33;;;;;;;;;;;;;;;;;;;;;
2022/08/22 09:00:24;;;;;;;36.40;18.30;;;;;;;19.00;90.01;98384.39;86243;1312;22714;-79
2022/08/22 09:03:13;;;;;;;26.90;20.00;;;;;;;19.02;90.05;98384.77;86454;1314;22823;-78
2022/08/22 09:05:52;;;;;;;34.40;20.30;;;;;;;19.08;90.12;98390.48;86366;1312;22773;-79
2022/08/22 09:08:38;;;;;;;49.40;20.00;;;;;;;19.11;90.08;98394.63;86865;1303;98534;-78
2022/08/22 09:11:44;;;;;;;36.30;19.10;;;;;;;19.15;90.09;98397.34;87230;1300;22590;-80
2022/08/22 09:14:21;;;;;;;37.80;19.10;;;;;;;19.15;89.92;98399.45;86594;1306;98564;-78
2022/08/22 09:17:27;;;;;;;33.70;18.60;;;;;;;19.16;89.95;98400.23;86295;1311;24155;-78
2022/08/22 09:20:53;;;;;;;36.60;19.00;;;;;;;19.17;90.01;98397.23;86672;1305;97706;-77
2022/08/22 09:23:57;;;;;;;34.50;19.10;;;;;;;19.16;90.16;98398.94;86287;1311;23890;-77
2022/08/22 09:26:44;;;;;;;28.60;18.10;;;;;;;19.18;90.12;98400.17;86221;1308;98530;-79
2022/08/22 09:35:58;;;;;;;42.90;21.00;;;;;;;19.29;90.04;98406.70;86363;1305;23378;-77
2022/08/22 09:39:28;;;;;;;34.40;19.60;;;;;;;19.33;90.01;98410.76;86274;1309;99008;-78
2022/08/22 09:41:55;;;;;;;28.60;18.50;;;;;;;19.33;89.97;98423.78;86846;1305;24828;-78
2022/08/22 09:45:08;;;;;;;29.00;20.60;;;;;;;19.32;89.94;98426.38;86743;1303;98742;-77
2022/08/22 09:48:12;;;;;;;39.20;19.60;;;;;;;19.29;90.02;98424.13;85750;1314;22708;-79
2022/08/22 09:50:26;;;;;;;31.30;18.60;;;;;;;19.19;89.75;98426.98;85147;1317;22609;-76
2022/08/22 09:52:41;;;;;;;39.30;20.70;;;;;;;19.13;89.78;98433.24;85340;1320;24486;-75
2022/08/22 09:54:53;;;;;;;36.00;21.00;;;;;;;19.07;89.80;98431.20;85883;1312;22828;-76
2022/08/22 09:57:31;;;;;;;51.70;22.80;;;;;;;19.01;89.94;98426.91;86030;1306;25415;-77
2022/08/22 10:00:19;;;;;;;49.40;22.10;;;;;;;18.99;89.95;98426.77;86335;1306;25439;-78
2022/08/22 10:03:01;;;;;;;31.20;21.20;;;;;;;18.90;90.04;98423.77;86344;1306;22883;-77
2022/08/22 10:06:15;;;;;;;39.60;21.80;;;;;;;18.89;90.10;98426.20;86185;1308;25969;-77
2022/08/22 10:09:02;;;;;;;41.70;22.40;;;;;;;18.84;90.02;98426.13;86650;1300;24033;-76
2022/08/22 10:11:25;;;;;;;53.20;23.00;;;;;;;18.80;90.14;98429.16;86457;1303;22768;-76
2022/08/22 10:14:01;;;;;;;55.50;23.90;;;;;;;18.79;90.19;98426.73;86330;1303;99619;-78
2022/08/22 10:17:19;;;;;;;56.00;23.00;;;;;;;18.77;90.18;98426.59;86607;1303;22665;-79
2022/08/22 10:20:16;;;;;;;115.40;28.30;;;;;;;18.76;90.28;98423.11;86616;1303;97399;-78
2022/08/22 10:22:30;;;;;;;64.10;25.10;;;;;;;18.77;90.47;98418.73;86677;1300;25430;-80
2022/08/22 10:25:43;;;;;;;;;;;;;;;;;;;;;
2022/08/22 10:29:15;;;;;;;;;;;;;;;;;;;;;
2022/08/22 10:32:08;;;;;;;72.10;27.60;;;;;;;18.70;90.55;98422.73;88038;1291;98670;-80
2022/08/22 10:35:19;;;;;;;;;;;;;;;;;;;;;
2022/08/22 10:38:09;;;;;;;61.70;25.40;;;;;;;18.76;90.59;98416.50;85929;1303;543426;-77
2022/08/22 10:40:23;;;;;;;108.90;28.70;;;;;;;18.73;90.64;98413.21;87373;1290;23160;-77
2022/08/22 10:42:44;;;;;;;48.10;25.40;;;;;;;18.74;90.67;98416.66;87563;1288;97779;-76
2022/08/22 10:45:12;;;;;;;67.40;25.00;;;;;;;18.75;90.72;98423.23;87590;1287;24222;-77
2022/08/22 10:47:20;;;;;;;50.70;24.80;;;;;;;18.75;90.68;98431.36;87500;1289;22570;-76
2022/08/22 10:49:43;;;;;;;88.30;26.10;;;;;;;18.73;90.70;98434.55;87460;1288;98355;-75
2022/08/22 10:51:56;;;;;;;122.20;28.70;;;;;;;18.72;90.66;98438.38;86634;1286;1370472;-74
2022/08/22 10:54:26;;;;;;;123.80;30.50;;;;;;;18.74;90.59;98434.52;87484;1286;22586;-76
2022/08/22 10:56:39;;;;;;;216.60;36.20;;;;;;;18.73;90.73;98422.43;87808;1284;22632;-75
2022/08/22 10:59:00;;;;;;;59.00;27.40;;;;;;;18.72;90.81;98415.58;87587;1286;27806;-75
2022/08/22 11:01:06;;;;;;;134.70;32.10;;;;;;;18.72;90.80;98412.94;87610;1287;99848;-75
2022/08/22 11:03:14;;;;;;;69.80;28.80;;;;;;;18.74;90.70;98413.68;87714;1287;22700;-76
2022/08/22 11:05:28;;;;;;;70.10;32.20;;;;;;;18.75;90.80;98409.66;87955;1286;24271;-77
2022/08/22 11:07:47;;;;;;;68.80;31.50;;;;;;;18.78;90.96;98408.80;87828;1286;97761;-77
2022/08/22 11:10:03;;;;;;;58.30;30.80;;;;;;;18.83;90.95;98417.83;88021;1286;22554;-78
2022/08/22 11:12:07;;;;;;;74.60;32.90;;;;;;;18.85;90.93;98412.65;88097;1286;22836;-77
2022/08/22 11:14:18;;;;;;;74.20;29.50;;;;;;;18.88;91.01;98416.27;87920;1284;98654;-79
2022/08/22 11:16:23;;;;;;;;;;;;;;;18.91;91.01;98418.16;87903;1286;24219;-76
2022/08/22 11:18:43;;;;;;;64.40;30.80;;;;;;;18.95;91.07;98417.46;88367;1277;84917;-76
2022/08/22 11:21:04;;;;;;;65.70;31.30;;;;;;;19.01;91.01;98417.80;88452;1277;25271;-77
2022/08/22 11:23:34;;;;;;;81.40;32.30;;;;;;;19.04;91.08;98414.48;88147;1277;24069;-76
2022/08/22 11:26:04;;;;;;;66.10;32.10;;;;;;;19.05;91.01;98409.92;87669;1281;98761;-77
2022/08/22 11:28:26;;;;;;;79.80;35.40;;;;;;;19.09;91.10;98407.08;87867;1281;22604;-79
2022/08/22 11:30:33;;;;;;;62.40;34.90;;;;;;;19.15;91.12;98408.30;87900;1281;99455;-79
2022/08/22 11:32:48;;;;;;;69.20;39.60;;;;;;;19.22;91.17;98406.08;87979;1281;26118;-81
2022/08/22 11:35:11;;;;;;;74.10;40.80;;;;;;;19.34;91.30;98409.30;88228;1283;25400;-77
2022/08/22 11:37:19;;;;;;;69.40;39.60;;;;;;;19.51;91.40;98403.20;88205;1281;98752;-78
2022/08/22 11:39:48;;;;;;;81.30;42.20;;;;;;;19.63;91.33;98400.72;88216;1283;22598;-78
2022/08/22 11:42:14;;;;;;;73.90;41.10;;;;;;;19.69;91.35;98389.02;87972;1283;25264;-81
2022/08/22 11:44:30;;;;;;;57.40;36.70;;;;;;;19.79;91.26;98385.22;88642;1281;23589;-78
2022/08/22 11:46:39;;;;;;;103.00;41.70;;;;;;;19.88;91.22;98380.42;88128;1281;22686;-77
2022/08/22 11:49:18;;;;;;;67.90;37.20;;;;;;;19.97;91.19;98379.86;87926;1284;98189;-79
2022/08/22 11:52:03;;;;;;;73.60;37.90;;;;;;;20.08;91.21;98378.04;88278;1281;25990;-79
2022/08/22 11:54:19;;;;;;;82.80;33.50;;;;;;;20.19;91.23;98380.33;88432;1284;24366;-80
2022/08/22 11:56:33;;;;;;;56.90;33.70;;;;;;;20.24;91.06;98377.84;88429;1283;22578;-81
2022/08/22 11:58:58;;;;;;;62.00;32.50;;;;;;;20.30;91.02;98374.51;88471;1281;22675;-79
2022/08/22 12:01:08;;;;;;;52.80;35.80;;;;;;;20.35;91.00;98370.92;88205;1282;98993;-79
2022/08/22 12:03:47;;;;;;;57.60;34.80;;;;;;;20.41;90.99;98362.82;88072;1278;25505;-78
2022/08/22 12:06:15;;;;;;;54.70;31.90;;;;;;;20.48;91.04;98358.05;87848;1283;22707;-78
2022/08/22 12:08:25;;;;;;;39.90;29.10;;;;;;;20.58;91.03;98360.25;87945;1284;22876;-78
2022/08/22 12:10:31;;;;;;;47.60;31.70;;;;;;;20.63;90.88;98358.21;87797;1281;23332;-77
2022/08/22 12:12:55;;;;;;;43.00;30.00;;;;;;;20.67;90.87;98355.31;87512;1284;99613;-77
2022/08/22 12:15:24;;;;;;;42.60;25.80;;;;;;;20.71;90.86;98349.54;87976;1281;22609;-78
2022/08/22 12:18:03;;;;;;;41.70;24.00;;;;;;;20.76;90.76;98350.66;88028;1280;22713;-77